Etusivu
METAR-TAF:

METAR-TAF

Lentoasemat :

Kristiansandin lentoasema

Kristiansand, Norja

Leveyspiiri: 58-12N, Pituuspiiri: 008-05E, korkeus merenpinnasta: 1 m

Tämänhetkinen sää

Tämä raportti tehtiin 27 minuuttia sitten, kello 10.20 UTC
Tuuli 9 kn koillisesta
Lämpötila 3°C
Kosteus 93%
Ilmanpaine 1028 hPa
Näkyvyys 10 km tai enemmän
Hajonneita pilviä 900 ft:n korkeudessa

METAR: ENCN 281020Z 05009KT 9999 BKN009 03/02 Q1028

Aika: 11:47 (10:47 UTC)

Sääennuste

Tämä raportti tehtiin 24 minuuttia sitten, kello 10.23 UTC
Ennuste voimassa 28. päivästä klo 10 UTC - 28. päivään klo 18 UTC
Tuuli 8 kn koillisesta
Näkyvyys 10 km tai enemmän
Muutamia pilviä 800 ft:n korkeudessa
Hajonneita pilviä 2500 ft:n korkeudessa
Ajoittain
28. päivästä klo 10 UTC - 28. päivään klo 12 UTC
Hajonneita pilviä 800 ft:n korkeudessa

TAF: ENCN 281023Z 2810/2818 05008KT 9999 FEW008 BKN025 TEMPO 2810/2812 BKN008

Säähavainnot ja -ennusteet yli 4000 lentoasemalta (METAR- ja TAF-raportit).

Käytössä olevat sääasemat on merkitty karttaan keltaisilla ja punaisilla pisteillä.

Aseta hiiri pisteen päälle nähdäksesi sääaseman nimen.

Klikkaa sitten nähdäksesi säähavainnot ja -ennusteet.

Kartan vaihtaminen: klikkaa mustalla rastilla varustettuja vihreitä pisteitä, niin voit zoomata sisään; viivalla varustettua vihreää pistettä, niin voit zoomata ulos tai vihreitä nuolia, niin pääset viereisille kartoille.


METAR-TAF: